sensor_id;sensor_type;location;lat;lon;timestamp;P1;durP1;ratioP1;P2;durP2;ratioP2
8654;SDS011;13500;52.514;13.462;2023-04-01T00:00:33;7.17;;;4.50;;
8654;SDS011;13500;52.514;13.462;2023-04-01T00:03:01;8.97;;;4.87;;
8654;SDS011;13500;52.514;13.462;2023-04-01T00:05:29;6.93;;;4.10;;
8654;SDS011;13500;52.514;13.462;2023-04-01T00:07:57;9.50;;;4.53;;
8654;SDS011;13500;52.514;13.462;2023-04-01T00:10:27;8.13;;;4.50;;
8654;SDS011;13500;52.514;13.462;2023-04-01T00:12:56;7.50;;;4.13;;
8654;SDS011;13500;52.514;13.462;2023-04-01T00:15:24;9.83;;;4.37;;
8654;SDS011;13500;52.514;13.462;2023-04-01T00:17:52;6.17;;;4.23;;
8654;SDS011;13500;52.514;13.462;2023-04-01T00:20:21;5.13;;;4.30;;
8654;SDS011;13500;52.514;13.462;2023-04-01T00:22:49;5.77;;;4.00;;
8654;SDS011;13500;52.514;13.462;2023-04-01T00:25:17;8.73;;;4.00;;
8654;SDS011;13500;52.514;13.462;2023-04-01T00:27:45;6.00;;;4.00;;
8654;SDS011;13500;52.514;13.462;2023-04-01T00:30:15;6.27;;;4.40;;
8654;SDS011;13500;52.514;13.462;2023-04-01T00:32:43;5.43;;;4.13;;
8654;SDS011;13500;52.514;13.462;2023-04-01T00:35:12;6.47;;;3.90;;
8654;SDS011;13500;52.514;13.462;2023-04-01T00:37:40;5.77;;;3.67;;
8654;SDS011;13500;52.514;13.462;2023-04-01T00:40:11;6.37;;;3.77;;
8654;SDS011;13500;52.514;13.462;2023-04-01T00:42:50;5.87;;;3.50;;
8654;SDS011;13500;52.514;13.462;2023-04-01T00:45:25;5.57;;;3.67;;
8654;SDS011;13500;52.514;13.462;2023-04-01T00:47:59;5.53;;;3.87;;
8654;SDS011;13500;52.514;13.462;2023-04-01T00:50:29;8.73;;;3.73;;
8654;SDS011;13500;52.514;13.462;2023-04-01T00:52:58;5.13;;;3.90;;
8654;SDS011;13500;52.514;13.462;2023-04-01T00:55:28;7.53;;;4.73;;
8654;SDS011;13500;52.514;13.462;2023-04-01T00:57:57;8.13;;;3.90;;
8654;SDS011;13500;52.514;13.462;2023-04-01T01:00:30;6.13;;;3.90;;
8654;SDS011;13500;52.514;13.462;2023-04-01T01:02:58;6.47;;;4.20;;
8654;SDS011;13500;52.514;13.462;2023-04-01T01:05:29;9.60;;;4.10;;
8654;SDS011;13500;52.514;13.462;2023-04-01T01:08:15;5.73;;;3.87;;
8654;SDS011;13500;52.514;13.462;2023-04-01T01:10:49;6.57;;;3.87;;
8654;SDS011;13500;52.514;13.462;2023-04-01T01:13:17;5.83;;;3.87;;
8654;SDS011;13500;52.514;13.462;2023-04-01T01:15:51;5.70;;;4.10;;
8654;SDS011;13500;52.514;13.462;2023-04-01T01:18:24;6.63;;;4.23;;
8654;SDS011;13500;52.514;13.462;2023-04-01T01:20:57;6.97;;;4.07;;
8654;SDS011;13500;52.514;13.462;2023-04-01T01:23:56;7.50;;;4.20;;
8654;SDS011;13500;52.514;13.462;2023-04-01T01:26:40;7.70;;;4.00;;
8654;SDS011;13500;52.514;13.462;2023-04-01T01:31:58;7.13;;;4.53;;
8654;SDS011;13500;52.514;13.462;2023-04-01T01:34:31;5.77;;;4.17;;
8654;SDS011;13500;52.514;13.462;2023-04-01T01:37:05;9.83;;;4.60;;
8654;SDS011;13500;52.514;13.462;2023-04-01T01:39:36;7.53;;;4.87;;
8654;SDS011;13500;52.514;13.462;2023-04-01T01:42:06;8.40;;;4.40;;
8654;SDS011;13500;52.514;13.462;2023-04-01T01:44:37;7.33;;;4.23;;
8654;SDS011;13500;52.514;13.462;2023-04-01T01:47:08;6.47;;;3.90;;
8654;SDS011;13500;52.514;13.462;2023-04-01T01:49:36;5.87;;;3.90;;
8654;SDS011;13500;52.514;13.462;2023-04-01T01:52:08;5.93;;;3.90;;
8654;SDS011;13500;52.514;13.462;2023-04-01T01:54:36;9.00;;;4.10;;
8654;SDS011;13500;52.514;13.462;2023-04-01T01:57:04;6.40;;;3.70;;
8654;SDS011;13500;52.514;13.462;2023-04-01T01:59:40;8.97;;;3.80;;
8654;SDS011;13500;52.514;13.462;2023-04-01T02:02:15;6.63;;;3.83;;
8654;SDS011;13500;52.514;13.462;2023-04-01T02:04:44;7.93;;;4.00;;
8654;SDS011;13500;52.514;13.462;2023-04-01T02:07:16;7.37;;;3.70;;
8654;SDS011;13500;52.514;13.462;2023-04-01T02:09:47;14.33;;;3.93;;
8654;SDS011;13500;52.514;13.462;2023-04-01T02:12:17;8.70;;;4.00;;
8654;SDS011;13500;52.514;13.462;2023-04-01T02:14:47;6.83;;;4.10;;
8654;SDS011;13500;52.514;13.462;2023-04-01T02:17:21;10.80;;;4.23;;
8654;SDS011;13500;52.514;13.462;2023-04-01T02:19:52;7.37;;;3.97;;
8654;SDS011;13500;52.514;13.462;2023-04-01T02:22:26;6.83;;;3.67;;
8654;SDS011;13500;52.514;13.462;2023-04-01T02:24:57;5.63;;;4.03;;
8654;SDS011;13500;52.514;13.462;2023-04-01T02:27:26;6.93;;;4.10;;
8654;SDS011;13500;52.514;13.462;2023-04-01T02:29:54;7.63;;;3.90;;
8654;SDS011;13500;52.514;13.462;2023-04-01T02:32:22;7.60;;;3.93;;
8654;SDS011;13500;52.514;13.462;2023-04-01T02:34:51;7.03;;;3.50;;
8654;SDS011;13500;52.514;13.462;2023-04-01T02:37:19;7.60;;;3.30;;
8654;SDS011;13500;52.514;13.462;2023-04-01T02:39:48;6.47;;;3.43;;
8654;SDS011;13500;52.514;13.462;2023-04-01T02:42:16;6.83;;;3.27;;
8654;SDS011;13500;52.514;13.462;2023-04-01T02:44:44;7.40;;;3.23;;
8654;SDS011;13500;52.514;13.462;2023-04-01T02:47:13;5.07;;;3.27;;
8654;SDS011;13500;52.514;13.462;2023-04-01T02:49:41;8.07;;;3.10;;
8654;SDS011;13500;52.514;13.462;2023-04-01T02:52:09;6.07;;;3.40;;
8654;SDS011;13500;52.514;13.462;2023-04-01T02:54:38;6.07;;;3.17;;
8654;SDS011;13500;52.514;13.462;2023-04-01T02:57:08;6.80;;;3.10;;
8654;SDS011;13500;52.514;13.462;2023-04-01T02:59:36;6.67;;;3.20;;
8654;SDS011;13500;52.514;13.462;2023-04-01T03:02:04;9.20;;;3.80;;
8654;SDS011;13500;52.514;13.462;2023-04-01T03:04:33;7.90;;;3.60;;
8654;SDS011;13500;52.514;13.462;2023-04-01T03:07:01;6.67;;;3.67;;
8654;SDS011;13500;52.514;13.462;2023-04-01T03:09:30;6.83;;;3.90;;
8654;SDS011;13500;52.514;13.462;2023-04-01T03:11:58;8.70;;;4.00;;
8654;SDS011;13500;52.514;13.462;2023-04-01T03:14:28;9.97;;;4.37;;
8654;SDS011;13500;52.514;13.462;2023-04-01T03:16:56;6.23;;;3.93;;
8654;SDS011;13500;52.514;13.462;2023-04-01T03:19:25;9.20;;;4.60;;
8654;SDS011;13500;52.514;13.462;2023-04-01T03:21:53;9.33;;;4.40;;
8654;SDS011;13500;52.514;13.462;2023-04-01T03:24:21;6.47;;;4.20;;
8654;SDS011;13500;52.514;13.462;2023-04-01T03:26:49;6.53;;;4.00;;
8654;SDS011;13500;52.514;13.462;2023-04-01T03:29:17;6.77;;;4.30;;
8654;SDS011;13500;52.514;13.462;2023-04-01T03:31:47;8.53;;;4.13;;
8654;SDS011;13500;52.514;13.462;2023-04-01T03:34:15;8.37;;;3.67;;
8654;SDS011;13500;52.514;13.462;2023-04-01T03:36:43;9.67;;;4.07;;
8654;SDS011;13500;52.514;13.462;2023-04-01T03:39:11;9.53;;;4.40;;
8654;SDS011;13500;52.514;13.462;2023-04-01T03:41:40;8.03;;;5.00;;
8654;SDS011;13500;52.514;13.462;2023-04-01T03:44:08;9.80;;;4.30;;
8654;SDS011;13500;52.514;13.462;2023-04-01T03:46:36;7.93;;;4.00;;
8654;SDS011;13500;52.514;13.462;2023-04-01T03:49:07;6.23;;;4.10;;
8654;SDS011;13500;52.514;13.462;2023-04-01T03:51:38;5.80;;;3.87;;
8654;SDS011;13500;52.514;13.462;2023-04-01T03:54:07;6.63;;;3.60;;
8654;SDS011;13500;52.514;13.462;2023-04-01T03:56:36;6.53;;;3.60;;
8654;SDS011;13500;52.514;13.462;2023-04-01T03:59:04;5.73;;;3.50;;
8654;SDS011;13500;52.514;13.462;2023-04-01T04:01:35;6.17;;;3.40;;
8654;SDS011;13500;52.514;13.462;2023-04-01T04:04:03;9.87;;;3.97;;
8654;SDS011;13500;52.514;13.462;2023-04-01T04:06:33;7.77;;;3.53;;
8654;SDS011;13500;52.514;13.462;2023-04-01T04:09:01;7.73;;;3.70;;
8654;SDS011;13500;52.514;13.462;2023-04-01T04:11:30;7.10;;;3.60;;
8654;SDS011;13500;52.514;13.462;2023-04-01T04:13:58;5.97;;;3.27;;
8654;SDS011;13500;52.514;13.462;2023-04-01T04:16:26;7.20;;;3.33;;
8654;SDS011;13500;52.514;13.462;2023-04-01T04:18:58;7.73;;;3.83;;
8654;SDS011;13500;52.514;13.462;2023-04-01T04:21:26;7.87;;;3.77;;
8654;SDS011;13500;52.514;13.462;2023-04-01T04:23:55;6.10;;;3.90;;
8654;SDS011;13500;52.514;13.462;2023-04-01T04:26:23;7.23;;;3.30;;
8654;SDS011;13500;52.514;13.462;2023-04-01T04:28:58;9.63;;;4.10;;
8654;SDS011;13500;52.514;13.462;2023-04-01T04:31:26;8.27;;;4.00;;
8654;SDS011;13500;52.514;13.462;2023-04-01T04:33:58;9.07;;;4.40;;
8654;SDS011;13500;52.514;13.462;2023-04-01T04:36:27;7.43;;;4.20;;
8654;SDS011;13500;52.514;13.462;2023-04-01T04:38:56;9.87;;;4.20;;
8654;SDS011;13500;52.514;13.462;2023-04-01T04:41:24;7.50;;;4.27;;
8654;SDS011;13500;52.514;13.462;2023-04-01T04:43:53;6.57;;;4.00;;
8654;SDS011;13500;52.514;13.462;2023-04-01T04:46:23;7.67;;;4.30;;
8654;SDS011;13500;52.514;13.462;2023-04-01T04:48:59;8.10;;;5.47;;
8654;SDS011;13500;52.514;13.462;2023-04-01T04:51:27;7.13;;;4.47;;
8654;SDS011;13500;52.514;13.462;2023-04-01T04:53:56;8.17;;;4.33;;
8654;SDS011;13500;52.514;13.462;2023-04-01T04:56:36;7.20;;;4.60;;
8654;SDS011;13500;52.514;13.462;2023-04-01T04:59:06;9.73;;;4.53;;
8654;SDS011;13500;52.514;13.462;2023-04-01T05:01:42;7.57;;;4.70;;
8654;SDS011;13500;52.514;13.462;2023-04-01T05:04:10;8.40;;;4.50;;
8654;SDS011;13500;52.514;13.462;2023-04-01T05:06:38;7.80;;;4.00;;
8654;SDS011;13500;52.514;13.462;2023-04-01T05:09:09;11.53;;;4.87;;
8654;SDS011;13500;52.514;13.462;2023-04-01T05:11:38;7.37;;;4.70;;
8654;SDS011;13500;52.514;13.462;2023-04-01T05:14:11;7.93;;;4.10;;
8654;SDS011;13500;52.514;13.462;2023-04-01T05:16:41;8.13;;;4.50;;
8654;SDS011;13500;52.514;13.462;2023-04-01T05:19:09;21.73;;;10.13;;
8654;SDS011;13500;52.514;13.462;2023-04-01T05:21:37;13.00;;;5.97;;
8654;SDS011;13500;52.514;13.462;2023-04-01T05:24:07;9.13;;;5.40;;
8654;SDS011;13500;52.514;13.462;2023-04-01T05:26:37;10.87;;;5.47;;
8654;SDS011;13500;52.514;13.462;2023-04-01T05:29:05;10.80;;;5.57;;
8654;SDS011;13500;52.514;13.462;2023-04-01T05:31:33;11.60;;;6.30;;
8654;SDS011;13500;52.514;13.462;2023-04-01T05:34:02;31.67;;;14.27;;
8654;SDS011;13500;52.514;13.462;2023-04-01T05:36:30;9.47;;;5.90;;
8654;SDS011;13500;52.514;13.462;2023-04-01T05:38:58;30.13;;;13.37;;
8654;SDS011;13500;52.514;13.462;2023-04-01T05:41:27;8.40;;;4.53;;
8654;SDS011;13500;52.514;13.462;2023-04-01T05:43:56;27.17;;;12.27;;
8654;SDS011;13500;52.514;13.462;2023-04-01T05:46:39;13.20;;;7.23;;
8654;SDS011;13500;52.514;13.462;2023-04-01T05:49:16;8.07;;;4.53;;
8654;SDS011;13500;52.514;13.462;2023-04-01T05:51:44;11.03;;;5.17;;
8654;SDS011;13500;52.514;13.462;2023-04-01T05:54:12;31.40;;;15.13;;
8654;SDS011;13500;52.514;13.462;2023-04-01T05:56:42;8.90;;;4.97;;
8654;SDS011;13500;52.514;13.462;2023-04-01T05:59:14;23.83;;;11.97;;
8654;SDS011;13500;52.514;13.462;2023-04-01T06:01:42;11.73;;;5.67;;
8654;SDS011;13500;52.514;13.462;2023-04-01T06:04:12;15.30;;;7.20;;
8654;SDS011;13500;52.514;13.462;2023-04-01T06:06:42;10.27;;;5.13;;
8654;SDS011;13500;52.514;13.462;2023-04-01T06:09:13;15.30;;;6.53;;
8654;SDS011;13500;52.514;13.462;2023-04-01T06:12:06;8.97;;;5.03;;
8654;SDS011;13500;52.514;13.462;2023-04-01T06:14:56;10.53;;;6.03;;
8654;SDS011;13500;52.514;13.462;2023-04-01T06:17:30;19.87;;;12.40;;
8654;SDS011;13500;52.514;13.462;2023-04-01T06:20:11;11.13;;;7.13;;
8654;SDS011;13500;52.514;13.462;2023-04-01T06:22:54;10.03;;;5.43;;
8654;SDS011;13500;52.514;13.462;2023-04-01T06:25:33;6.83;;;4.80;;
8654;SDS011;13500;52.514;13.462;2023-04-01T06:31:16;10.33;;;5.27;;
8654;SDS011;13500;52.514;13.462;2023-04-01T06:33:56;10.03;;;5.23;;
8654;SDS011;13500;52.514;13.462;2023-04-01T06:36:39;12.53;;;5.47;;
8654;SDS011;13500;52.514;13.462;2023-04-01T06:39:16;11.17;;;5.20;;
8654;SDS011;13500;52.514;13.462;2023-04-01T06:45:07;14.43;;;6.63;;
8654;SDS011;13500;52.514;13.462;2023-04-01T06:48:29;8.07;;;6.07;;
8654;SDS011;13500;52.514;13.462;2023-04-01T06:51:28;10.27;;;6.93;;
8654;SDS011;13500;52.514;13.462;2023-04-01T06:54:20;10.23;;;6.83;;
8654;SDS011;13500;52.514;13.462;2023-04-01T06:57:02;10.80;;;7.43;;
8654;SDS011;13500;52.514;13.462;2023-04-01T06:59:33;9.77;;;7.10;;
8654;SDS011;13500;52.514;13.462;2023-04-01T07:02:04;8.37;;;7.20;;
8654;SDS011;13500;52.514;13.462;2023-04-01T07:04:36;13.43;;;7.00;;
8654;SDS011;13500;52.514;13.462;2023-04-01T07:07:08;11.40;;;7.07;;
8654;SDS011;13500;52.514;13.462;2023-04-01T07:09:58;7.50;;;6.43;;
8654;SDS011;13500;52.514;13.462;2023-04-01T07:12:32;9.27;;;6.80;;
8654;SDS011;13500;52.514;13.462;2023-04-01T07:15:37;8.57;;;6.53;;
8654;SDS011;13500;52.514;13.462;2023-04-01T07:18:10;10.20;;;6.67;;
8654;SDS011;13500;52.514;13.462;2023-04-01T07:20:41;17.77;;;8.77;;
8654;SDS011;13500;52.514;13.462;2023-04-01T07:23:10;11.80;;;6.87;;
8654;SDS011;13500;52.514;13.462;2023-04-01T07:25:55;11.00;;;7.23;;
8654;SDS011;13500;52.514;13.462;2023-04-01T07:28:24;12.67;;;8.33;;
8654;SDS011;13500;52.514;13.462;2023-04-01T07:31:02;11.47;;;8.23;;
8654;SDS011;13500;52.514;13.462;2023-04-01T07:33:38;12.67;;;6.73;;
8654;SDS011;13500;52.514;13.462;2023-04-01T07:36:10;9.80;;;6.20;;
8654;SDS011;13500;52.514;13.462;2023-04-01T07:38:45;12.93;;;6.47;;
8654;SDS011;13500;52.514;13.462;2023-04-01T07:41:40;14.43;;;8.20;;
8654;SDS011;13500;52.514;13.462;2023-04-01T07:44:14;11.17;;;7.53;;
8654;SDS011;13500;52.514;13.462;2023-04-01T07:46:48;12.50;;;8.50;;
8654;SDS011;13500;52.514;13.462;2023-04-01T07:49:22;8.77;;;6.30;;
8654;SDS011;13500;52.514;13.462;2023-04-01T07:51:58;10.57;;;7.27;;
8654;SDS011;13500;52.514;13.462;2023-04-01T07:54:34;11.73;;;7.90;;
8654;SDS011;13500;52.514;13.462;2023-04-01T07:57:08;12.57;;;7.57;;
8654;SDS011;13500;52.514;13.462;2023-04-01T07:59:46;10.87;;;7.23;;
8654;SDS011;13500;52.514;13.462;2023-04-01T08:02:26;10.00;;;7.30;;
8654;SDS011;13500;52.514;13.462;2023-04-01T08:05:01;9.83;;;7.13;;
8654;SDS011;13500;52.514;13.462;2023-04-01T08:07:38;9.50;;;6.70;;
8654;SDS011;13500;52.514;13.462;2023-04-01T08:10:46;7.67;;;6.10;;
8654;SDS011;13500;52.514;13.462;2023-04-01T08:13:38;8.13;;;6.20;;
8654;SDS011;13500;52.514;13.462;2023-04-01T08:16:37;8.33;;;5.43;;
8654;SDS011;13500;52.514;13.462;2023-04-01T08:19:16;4.57;;;4.10;;
8654;SDS011;13500;52.514;13.462;2023-04-01T08:21:52;4.80;;;4.30;;
8654;SDS011;13500;52.514;13.462;2023-04-01T08:24:25;6.37;;;4.87;;
8654;SDS011;13500;52.514;13.462;2023-04-01T08:27:16;8.80;;;7.47;;
8654;SDS011;13500;52.514;13.462;2023-04-01T08:29:48;8.63;;;6.10;;
8654;SDS011;13500;52.514;13.462;2023-04-01T08:32:20;10.53;;;7.50;;
8654;SDS011;13500;52.514;13.462;2023-04-01T08:34:54;10.37;;;7.50;;
8654;SDS011;13500;52.514;13.462;2023-04-01T08:37:38;10.73;;;8.10;;
8654;SDS011;13500;52.514;13.462;2023-04-01T08:40:17;10.53;;;8.30;;
8654;SDS011;13500;52.514;13.462;2023-04-01T08:42:59;11.50;;;8.20;;
8654;SDS011;13500;52.514;13.462;2023-04-01T08:48:34;12.90;;;9.43;;
8654;SDS011;13500;52.514;13.462;2023-04-01T08:54:17;12.93;;;10.30;;
8654;SDS011;13500;52.514;13.462;2023-04-01T08:57:01;13.57;;;10.70;;
8654;SDS011;13500;52.514;13.462;2023-04-01T08:59:37;14.03;;;10.50;;
8654;SDS011;13500;52.514;13.462;2023-04-01T09:02:45;11.43;;;9.73;;
8654;SDS011;13500;52.514;13.462;2023-04-01T09:05:35;11.03;;;9.80;;
8654;SDS011;13500;52.514;13.462;2023-04-01T09:08:09;10.50;;;9.47;;
8654;SDS011;13500;52.514;13.462;2023-04-01T09:10:46;10.83;;;9.63;;
8654;SDS011;13500;52.514;13.462;2023-04-01T09:13:49;11.87;;;9.77;;
8654;SDS011;13500;52.514;13.462;2023-04-01T09:16:32;10.77;;;8.43;;
8654;SDS011;13500;52.514;13.462;2023-04-01T09:19:15;11.20;;;9.73;;
8654;SDS011;13500;52.514;13.462;2023-04-01T09:27:57;10.90;;;9.77;;
8654;SDS011;13500;52.514;13.462;2023-04-01T09:30:37;11.60;;;10.33;;
8654;SDS011;13500;52.514;13.462;2023-04-01T09:36:55;12.43;;;11.20;;
8654;SDS011;13500;52.514;13.462;2023-04-01T09:39:36;16.13;;;14.47;;
8654;SDS011;13500;52.514;13.462;2023-04-01T09:42:33;13.60;;;12.30;;
8654;SDS011;13500;52.514;13.462;2023-04-01T09:45:27;15.20;;;13.70;;
8654;SDS011;13500;52.514;13.462;2023-04-01T09:48:21;13.20;;;11.90;;
8654;SDS011;13500;52.514;13.462;2023-04-01T09:51:01;13.83;;;12.47;;
8654;SDS011;13500;52.514;13.462;2023-04-01T09:53:43;13.83;;;12.53;;
8654;SDS011;13500;52.514;13.462;2023-04-01T09:56:22;13.97;;;12.77;;
8654;SDS011;13500;52.514;13.462;2023-04-01T09:59:15;13.10;;;12.00;;
8654;SDS011;13500;52.514;13.462;2023-04-01T10:15:19;13.23;;;11.93;;
8654;SDS011;13500;52.514;13.462;2023-04-01T10:21:14;15.43;;;13.93;;
8654;SDS011;13500;52.514;13.462;2023-04-01T10:23:57;13.87;;;12.37;;
8654;SDS011;13500;52.514;13.462;2023-04-01T10:26:45;12.23;;;11.20;;
8654;SDS011;13500;52.514;13.462;2023-04-01T10:30:04;10.47;;;9.57;;
8654;SDS011;13500;52.514;13.462;2023-04-01T10:33:04;10.77;;;9.87;;
8654;SDS011;13500;52.514;13.462;2023-04-01T10:38:46;10.87;;;9.97;;
8654;SDS011;13500;52.514;13.462;2023-04-01T10:41:46;10.10;;;9.20;;
8654;SDS011;13500;52.514;13.462;2023-04-01T10:56:54;6.80;;;6.20;;
8654;SDS011;13500;52.514;13.462;2023-04-01T11:09:34;4.70;;;4.30;;
8654;SDS011;13500;52.514;13.462;2023-04-01T11:12:35;4.67;;;4.27;;
8654;SDS011;13500;52.514;13.462;2023-04-01T11:18:33;5.53;;;5.03;;
8654;SDS011;13500;52.514;13.462;2023-04-01T11:21:21;5.03;;;4.53;;
8654;SDS011;13500;52.514;13.462;2023-04-01T11:27:33;4.30;;;3.90;;
8654;SDS011;13500;52.514;13.462;2023-04-01T11:30:16;3.63;;;3.33;;
8654;SDS011;13500;52.514;13.462;2023-04-01T11:32:52;10.33;;;9.27;;
8654;SDS011;13500;52.514;13.462;2023-04-01T11:35:28;5.90;;;5.33;;
8654;SDS011;13500;52.514;13.462;2023-04-01T11:38:06;4.73;;;4.27;;
8654;SDS011;13500;52.514;13.462;2023-04-01T11:40:45;4.10;;;3.70;;
8654;SDS011;13500;52.514;13.462;2023-04-01T11:43:24;4.70;;;4.30;;
8654;SDS011;13500;52.514;13.462;2023-04-01T11:46:15;4.50;;;4.10;;
8654;SDS011;13500;52.514;13.462;2023-04-01T11:48:52;4.23;;;3.27;;
8654;SDS011;13500;52.514;13.462;2023-04-01T11:51:42;5.10;;;3.43;;
8654;SDS011;13500;52.514;13.462;2023-04-01T11:54:23;3.70;;;3.40;;
8654;SDS011;13500;52.514;13.462;2023-04-01T11:57:04;7.03;;;4.80;;
8654;SDS011;13500;52.514;13.462;2023-04-01T12:02:43;5.07;;;4.57;;
8654;SDS011;13500;52.514;13.462;2023-04-01T12:05:22;4.83;;;4.43;;
8654;SDS011;13500;52.514;13.462;2023-04-01T12:07:58;4.87;;;4.37;;
8654;SDS011;13500;52.514;13.462;2023-04-01T12:10:33;5.07;;;4.63;;
8654;SDS011;13500;52.514;13.462;2023-04-01T12:13:08;5.00;;;4.60;;
8654;SDS011;13500;52.514;13.462;2023-04-01T12:15:48;4.70;;;4.30;;
8654;SDS011;13500;52.514;13.462;2023-04-01T12:18:24;4.60;;;4.20;;
8654;SDS011;13500;52.514;13.462;2023-04-01T12:20:57;4.80;;;4.40;;
8654;SDS011;13500;52.514;13.462;2023-04-01T12:23:35;5.17;;;4.67;;
8654;SDS011;13500;52.514;13.462;2023-04-01T12:26:23;5.37;;;4.87;;
8654;SDS011;13500;52.514;13.462;2023-04-01T12:29:07;6.10;;;5.50;;
8654;SDS011;13500;52.514;13.462;2023-04-01T12:31:50;5.67;;;5.17;;
8654;SDS011;13500;52.514;13.462;2023-04-01T12:34:36;5.87;;;5.30;;
8654;SDS011;13500;52.514;13.462;2023-04-01T12:37:10;5.50;;;5.00;;
8654;SDS011;13500;52.514;13.462;2023-04-01T12:39:47;6.20;;;5.53;;
8654;SDS011;13500;52.514;13.462;2023-04-01T12:42:31;6.47;;;5.07;;
8654;SDS011;13500;52.514;13.462;2023-04-01T12:45:19;6.50;;;5.60;;
8654;SDS011;13500;52.514;13.462;2023-04-01T12:48:16;6.13;;;5.47;;
8654;SDS011;13500;52.514;13.462;2023-04-01T12:51:01;5.70;;;5.20;;
8654;SDS011;13500;52.514;13.462;2023-04-01T12:53:40;6.57;;;5.00;;
8654;SDS011;13500;52.514;13.462;2023-04-01T12:56:17;4.93;;;4.43;;
8654;SDS011;13500;52.514;13.462;2023-04-01T12:58:59;6.03;;;5.43;;
8654;SDS011;13500;52.514;13.462;2023-04-01T13:04:46;6.30;;;5.80;;
8654;SDS011;13500;52.514;13.462;2023-04-01T13:07:28;6.53;;;5.93;;
8654;SDS011;13500;52.514;13.462;2023-04-01T13:10:06;6.80;;;6.17;;
8654;SDS011;13500;52.514;13.462;2023-04-01T13:12:52;6.90;;;6.30;;
8654;SDS011;13500;52.514;13.462;2023-04-01T13:15:36;6.67;;;6.07;;
8654;SDS011;13500;52.514;13.462;2023-04-01T13:18:09;6.77;;;6.17;;
8654;SDS011;13500;52.514;13.462;2023-04-01T13:20:48;7.50;;;6.60;;
8654;SDS011;13500;52.514;13.462;2023-04-01T13:23:24;7.43;;;6.60;;
8654;SDS011;13500;52.514;13.462;2023-04-01T13:26:06;6.30;;;5.80;;
8654;SDS011;13500;52.514;13.462;2023-04-01T13:28:42;6.87;;;6.27;;
8654;SDS011;13500;52.514;13.462;2023-04-01T13:31:24;6.10;;;5.50;;
8654;SDS011;13500;52.514;13.462;2023-04-01T13:34:00;6.20;;;5.60;;
8654;SDS011;13500;52.514;13.462;2023-04-01T13:36:36;5.70;;;5.20;;
8654;SDS011;13500;52.514;13.462;2023-04-01T13:39:13;5.87;;;5.37;;
8654;SDS011;13500;52.514;13.462;2023-04-01T13:41:49;5.60;;;5.10;;
8654;SDS011;13500;52.514;13.462;2023-04-01T13:44:28;6.60;;;6.00;;
8654;SDS011;13500;52.514;13.462;2023-04-01T13:47:08;8.70;;;7.90;;
8654;SDS011;13500;52.514;13.462;2023-04-01T13:49:52;9.90;;;8.73;;
8654;SDS011;13500;52.514;13.462;2023-04-01T13:52:31;9.57;;;8.67;;
8654;SDS011;13500;52.514;13.462;2023-04-01T13:55:14;8.63;;;7.90;;
8654;SDS011;13500;52.514;13.462;2023-04-01T13:57:52;7.30;;;6.70;;
8654;SDS011;13500;52.514;13.462;2023-04-01T14:00:35;8.20;;;7.50;;
8654;SDS011;13500;52.514;13.462;2023-04-01T14:06:06;8.90;;;8.10;;
8654;SDS011;13500;52.514;13.462;2023-04-01T14:08:46;9.73;;;8.83;;
8654;SDS011;13500;52.514;13.462;2023-04-01T14:11:32;9.07;;;8.37;;
8654;SDS011;13500;52.514;13.462;2023-04-01T14:14:06;8.03;;;7.33;;
8654;SDS011;13500;52.514;13.462;2023-04-01T14:16:57;7.50;;;6.90;;
8654;SDS011;13500;52.514;13.462;2023-04-01T14:19:34;8.23;;;7.43;;
8654;SDS011;13500;52.514;13.462;2023-04-01T14:22:18;8.20;;;7.43;;
8654;SDS011;13500;52.514;13.462;2023-04-01T14:24:58;6.60;;;6.00;;
8654;SDS011;13500;52.514;13.462;2023-04-01T14:27:44;7.83;;;7.13;;
8654;SDS011;13500;52.514;13.462;2023-04-01T14:30:31;7.30;;;6.70;;
8654;SDS011;13500;52.514;13.462;2023-04-01T14:33:15;8.00;;;7.30;;
8654;SDS011;13500;52.514;13.462;2023-04-01T14:35:49;7.10;;;6.50;;
8654;SDS011;13500;52.514;13.462;2023-04-01T14:38:26;7.23;;;6.53;;
8654;SDS011;13500;52.514;13.462;2023-04-01T14:41:00;7.27;;;6.63;;
8654;SDS011;13500;52.514;13.462;2023-04-01T14:46:30;7.53;;;6.83;;
8654;SDS011;13500;52.514;13.462;2023-04-01T14:49:14;7.90;;;7.20;;
8654;SDS011;13500;52.514;13.462;2023-04-01T14:51:43;8.13;;;7.33;;
8654;SDS011;13500;52.514;13.462;2023-04-01T14:54:13;6.73;;;6.13;;
8654;SDS011;13500;52.514;13.462;2023-04-01T14:56:50;6.47;;;5.87;;
8654;SDS011;13500;52.514;13.462;2023-04-01T14:59:29;6.17;;;5.60;;
8654;SDS011;13500;52.514;13.462;2023-04-01T15:01:59;6.57;;;5.97;;
8654;SDS011;13500;52.514;13.462;2023-04-01T15:04:37;7.33;;;6.70;;
8654;SDS011;13500;52.514;13.462;2023-04-01T15:10:19;6.80;;;6.20;;
8654;SDS011;13500;52.514;13.462;2023-04-01T15:13:03;7.10;;;6.20;;
8654;SDS011;13500;52.514;13.462;2023-04-01T15:15:36;7.03;;;6.33;;
8654;SDS011;13500;52.514;13.462;2023-04-01T15:18:13;6.97;;;6.27;;
8654;SDS011;13500;52.514;13.462;2023-04-01T15:23:51;6.37;;;5.80;;
8654;SDS011;13500;52.514;13.462;2023-04-01T15:26:30;5.10;;;4.60;;
8654;SDS011;13500;52.514;13.462;2023-04-01T15:29:14;7.50;;;6.80;;
8654;SDS011;13500;52.514;13.462;2023-04-01T15:31:53;8.10;;;7.30;;
8654;SDS011;13500;52.514;13.462;2023-04-01T15:34:26;10.67;;;6.83;;
8654;SDS011;13500;52.514;13.462;2023-04-01T15:37:01;7.67;;;6.30;;
8654;SDS011;13500;52.514;13.462;2023-04-01T15:39:38;6.27;;;5.60;;
8654;SDS011;13500;52.514;13.462;2023-04-01T15:42:19;6.87;;;6.17;;
8654;SDS011;13500;52.514;13.462;2023-04-01T15:45:00;6.10;;;5.03;;
8654;SDS011;13500;52.514;13.462;2023-04-01T15:47:37;4.27;;;3.87;;
8654;SDS011;13500;52.514;13.462;2023-04-01T15:50:24;5.40;;;4.90;;
8654;SDS011;13500;52.514;13.462;2023-04-01T15:53:00;5.73;;;4.60;;
8654;SDS011;13500;52.514;13.462;2023-04-01T15:55:37;4.80;;;4.40;;
8654;SDS011;13500;52.514;13.462;2023-04-01T15:58:17;4.83;;;4.43;;
8654;SDS011;13500;52.514;13.462;2023-04-01T16:00:53;5.50;;;4.93;;
8654;SDS011;13500;52.514;13.462;2023-04-01T16:03:30;6.10;;;5.50;;
8654;SDS011;13500;52.514;13.462;2023-04-01T16:06:11;6.13;;;5.53;;
8654;SDS011;13500;52.514;13.462;2023-04-01T16:11:40;6.63;;;6.03;;
8654;SDS011;13500;52.514;13.462;2023-04-01T16:14:16;7.67;;;5.87;;
8654;SDS011;13500;52.514;13.462;2023-04-01T16:16:57;6.83;;;5.37;;
8654;SDS011;13500;52.514;13.462;2023-04-01T16:19:35;6.50;;;5.80;;
8654;SDS011;13500;52.514;13.462;2023-04-01T16:22:07;6.20;;;5.40;;
8654;SDS011;13500;52.514;13.462;2023-04-01T16:24:38;6.20;;;5.30;;
8654;SDS011;13500;52.514;13.462;2023-04-01T16:27:11;7.10;;;6.40;;
8654;SDS011;13500;52.514;13.462;2023-04-01T16:29:44;8.00;;;7.20;;
8654;SDS011;13500;52.514;13.462;2023-04-01T16:32:17;6.70;;;6.00;;
8654;SDS011;13500;52.514;13.462;2023-04-01T16:34:54;6.87;;;5.40;;
8654;SDS011;13500;52.514;13.462;2023-04-01T16:37:29;6.77;;;5.27;;
8654;SDS011;13500;52.514;13.462;2023-04-01T16:40:09;5.57;;;5.07;;
8654;SDS011;13500;52.514;13.462;2023-04-01T16:42:42;6.70;;;5.73;;
8654;SDS011;13500;52.514;13.462;2023-04-01T16:45:17;7.07;;;5.67;;
8654;SDS011;13500;52.514;13.462;2023-04-01T16:47:52;6.70;;;5.67;;
8654;SDS011;13500;52.514;13.462;2023-04-01T16:50:22;9.73;;;6.50;;
8654;SDS011;13500;52.514;13.462;2023-04-01T16:52:54;8.33;;;5.40;;
8654;SDS011;13500;52.514;13.462;2023-04-01T16:58:14;5.80;;;4.90;;
8654;SDS011;13500;52.514;13.462;2023-04-01T17:00:48;5.93;;;4.53;;
8654;SDS011;13500;52.514;13.462;2023-04-01T17:03:22;4.60;;;4.20;;
8654;SDS011;13500;52.514;13.462;2023-04-01T17:05:57;6.03;;;5.43;;
8654;SDS011;13500;52.514;13.462;2023-04-01T17:08:38;6.30;;;5.07;;
8654;SDS011;13500;52.514;13.462;2023-04-01T17:11:12;5.70;;;5.20;;
8654;SDS011;13500;52.514;13.462;2023-04-01T17:13:46;5.17;;;4.67;;